Regan, North Dakota
Current Conditions -  °F | °C
As of 1:52 AM on Friday 31 Oct 2014 (Local Time) from KBIS Reporting Station
Clear Clear  
Wind Chill: -7°   Ceiling: Unl
Heat Index: -7°   Visibility: 10mi
Dew Point: -9°   Wind: 0mph
Humidity: 88%   Direction: NA
Pressure: 30.59"   Gusts: NA
Location:  47.16°N, 100.53°W
Report Text: KBIS 310652Z 00000KT 10SM CLR M07/M09 A3059 RMK AO2 SLP383 I1000 T10721089
Loading
Personal Weather Stations






























Interactive Weather Map
Tropical Storm Tracking
New forecast layout! Learn more

10-Day Weather Forecast

Advertisements
Track Severe Weather on mobile